sensor_id;sensor_type;location;lat;lon;timestamp;temperature;humidity
20777;DHT22;10548;47.504;8.248;2022-10-16T00:01:22;12.90;99.90
20777;DHT22;10548;47.504;8.248;2022-10-16T00:03:50;12.90;99.90
20777;DHT22;10548;47.504;8.248;2022-10-16T00:06:19;12.90;99.90
20777;DHT22;10548;47.504;8.248;2022-10-16T00:08:47;12.90;99.90
20777;DHT22;10548;47.504;8.248;2022-10-16T00:11:20;12.90;99.90
20777;DHT22;10548;47.504;8.248;2022-10-16T00:13:48;12.90;99.90
20777;DHT22;10548;47.504;8.248;2022-10-16T00:16:17;12.90;99.90
20777;DHT22;10548;47.504;8.248;2022-10-16T00:18:44;13.00;99.90
20777;DHT22;10548;47.504;8.248;2022-10-16T00:21:23;13.00;99.90
20777;DHT22;10548;47.504;8.248;2022-10-16T00:24:00;12.90;99.90
20777;DHT22;10548;47.504;8.248;2022-10-16T00:26:29;13.00;99.90
20777;DHT22;10548;47.504;8.248;2022-10-16T00:28:56;13.00;99.90
20777;DHT22;10548;47.504;8.248;2022-10-16T00:31:24;13.00;99.90
20777;DHT22;10548;47.504;8.248;2022-10-16T00:33:52;12.90;99.90
20777;DHT22;10548;47.504;8.248;2022-10-16T00:36:22;13.00;99.90
20777;DHT22;10548;47.504;8.248;2022-10-16T00:38:56;13.00;99.90
20777;DHT22;10548;47.504;8.248;2022-10-16T00:41:31;13.00;99.90
20777;DHT22;10548;47.504;8.248;2022-10-16T00:44:00;13.00;99.90
20777;DHT22;10548;47.504;8.248;2022-10-16T00:46:39;13.00;99.90
20777;DHT22;10548;47.504;8.248;2022-10-16T00:49:17;13.00;99.90
20777;DHT22;10548;47.504;8.248;2022-10-16T00:51:55;13.00;99.90
20777;DHT22;10548;47.504;8.248;2022-10-16T00:54:26;13.10;99.90
20777;DHT22;10548;47.504;8.248;2022-10-16T00:56:55;13.10;99.90
20777;DHT22;10548;47.504;8.248;2022-10-16T00:59:26;13.00;99.90
20777;DHT22;10548;47.504;8.248;2022-10-16T01:01:55;13.00;99.90
20777;DHT22;10548;47.504;8.248;2022-10-16T01:04:23;13.00;99.90
20777;DHT22;10548;47.504;8.248;2022-10-16T01:07:18;13.00;99.90
20777;DHT22;10548;47.504;8.248;2022-10-16T01:10:02;13.00;99.90
20777;DHT22;10548;47.504;8.248;2022-10-16T01:12:41;13.00;99.90
20777;DHT22;10548;47.504;8.248;2022-10-16T01:15:37;12.90;99.90
20777;DHT22;10548;47.504;8.248;2022-10-16T01:21:18;12.90;99.90
20777;DHT22;10548;47.504;8.248;2022-10-16T01:24:27;12.90;99.90
20777;DHT22;10548;47.504;8.248;2022-10-16T01:27:13;12.90;99.90
20777;DHT22;10548;47.504;8.248;2022-10-16T01:30:07;12.90;99.90
20777;DHT22;10548;47.504;8.248;2022-10-16T01:32:43;12.90;99.90
20777;DHT22;10548;47.504;8.248;2022-10-16T01:35:26;12.90;99.90
20777;DHT22;10548;47.504;8.248;2022-10-16T01:38:19;12.90;99.90
20777;DHT22;10548;47.504;8.248;2022-10-16T01:40:51;12.90;99.90
20777;DHT22;10548;47.504;8.248;2022-10-16T01:43:27;12.90;99.90
20777;DHT22;10548;47.504;8.248;2022-10-16T01:45:57;12.90;99.90
20777;DHT22;10548;47.504;8.248;2022-10-16T01:48:25;12.90;99.90
20777;DHT22;10548;47.504;8.248;2022-10-16T01:51:00;12.90;99.90
20777;DHT22;10548;47.504;8.248;2022-10-16T01:53:29;13.00;99.90
20777;DHT22;10548;47.504;8.248;2022-10-16T01:55:58;13.00;99.90
20777;DHT22;10548;47.504;8.248;2022-10-16T01:58:28;13.00;99.90
20777;DHT22;10548;47.504;8.248;2022-10-16T02:01:03;13.10;99.90
20777;DHT22;10548;47.504;8.248;2022-10-16T02:03:33;13.00;99.90
20777;DHT22;10548;47.504;8.248;2022-10-16T02:06:01;13.00;99.90
20777;DHT22;10548;47.504;8.248;2022-10-16T02:08:29;13.00;99.90
20777;DHT22;10548;47.504;8.248;2022-10-16T02:10:58;13.00;99.90
20777;DHT22;10548;47.504;8.248;2022-10-16T02:13:34;12.90;99.90
20777;DHT22;10548;47.504;8.248;2022-10-16T02:16:04;12.90;99.90
20777;DHT22;10548;47.504;8.248;2022-10-16T02:18:32;12.80;99.90
20777;DHT22;10548;47.504;8.248;2022-10-16T02:21:06;12.80;99.90
20777;DHT22;10548;47.504;8.248;2022-10-16T02:23:57;12.80;99.90
20777;DHT22;10548;47.504;8.248;2022-10-16T02:26:35;12.70;99.90
20777;DHT22;10548;47.504;8.248;2022-10-16T02:29:08;12.70;99.90
20777;DHT22;10548;47.504;8.248;2022-10-16T02:31:41;12.70;99.90
20777;DHT22;10548;47.504;8.248;2022-10-16T02:34:11;12.70;99.90
20777;DHT22;10548;47.504;8.248;2022-10-16T02:36:40;12.70;99.90
20777;DHT22;10548;47.504;8.248;2022-10-16T02:39:08;12.80;99.90
20777;DHT22;10548;47.504;8.248;2022-10-16T02:41:36;12.80;99.90
20777;DHT22;10548;47.504;8.248;2022-10-16T02:44:04;12.80;99.90
20777;DHT22;10548;47.504;8.248;2022-10-16T02:46:31;12.90;99.90
20777;DHT22;10548;47.504;8.248;2022-10-16T02:48:58;12.90;99.90
20777;DHT22;10548;47.504;8.248;2022-10-16T02:51:25;12.90;99.90
20777;DHT22;10548;47.504;8.248;2022-10-16T02:53:52;12.90;99.90
20777;DHT22;10548;47.504;8.248;2022-10-16T02:56:20;12.90;99.90
20777;DHT22;10548;47.504;8.248;2022-10-16T02:58:47;12.90;99.90
20777;DHT22;10548;47.504;8.248;2022-10-16T03:01:14;12.90;99.90
20777;DHT22;10548;47.504;8.248;2022-10-16T03:03:43;12.90;99.90
20777;DHT22;10548;47.504;8.248;2022-10-16T03:06:11;12.90;99.90
20777;DHT22;10548;47.504;8.248;2022-10-16T03:08:38;12.80;99.90
20777;DHT22;10548;47.504;8.248;2022-10-16T03:11:05;12.90;99.90
20777;DHT22;10548;47.504;8.248;2022-10-16T03:13:32;12.80;99.90
20777;DHT22;10548;47.504;8.248;2022-10-16T03:15:59;12.80;99.90
20777;DHT22;10548;47.504;8.248;2022-10-16T03:18:26;12.80;99.90
20777;DHT22;10548;47.504;8.248;2022-10-16T03:20:54;12.80;99.90
20777;DHT22;10548;47.504;8.248;2022-10-16T03:23:21;12.80;99.90
20777;DHT22;10548;47.504;8.248;2022-10-16T03:25:48;12.80;99.90
20777;DHT22;10548;47.504;8.248;2022-10-16T03:28:15;12.80;99.90
20777;DHT22;10548;47.504;8.248;2022-10-16T03:30:43;12.80;99.90
20777;DHT22;10548;47.504;8.248;2022-10-16T03:33:10;12.80;99.90
20777;DHT22;10548;47.504;8.248;2022-10-16T03:35:37;12.80;99.90
20777;DHT22;10548;47.504;8.248;2022-10-16T03:38:05;12.90;99.90
20777;DHT22;10548;47.504;8.248;2022-10-16T03:40:32;13.00;99.90
20777;DHT22;10548;47.504;8.248;2022-10-16T03:42:59;13.00;99.90
20777;DHT22;10548;47.504;8.248;2022-10-16T03:45:27;13.00;99.90
20777;DHT22;10548;47.504;8.248;2022-10-16T03:47:54;13.00;99.90
20777;DHT22;10548;47.504;8.248;2022-10-16T03:50:21;13.00;99.90
20777;DHT22;10548;47.504;8.248;2022-10-16T03:52:48;13.00;99.90
20777;DHT22;10548;47.504;8.248;2022-10-16T03:55:15;13.10;99.90
20777;DHT22;10548;47.504;8.248;2022-10-16T03:57:42;13.00;99.90
20777;DHT22;10548;47.504;8.248;2022-10-16T04:00:11;13.00;99.90
20777;DHT22;10548;47.504;8.248;2022-10-16T04:02:38;13.00;99.90
20777;DHT22;10548;47.504;8.248;2022-10-16T04:05:06;13.00;99.90
20777;DHT22;10548;47.504;8.248;2022-10-16T04:07:34;13.00;99.90
20777;DHT22;10548;47.504;8.248;2022-10-16T04:10:01;13.00;99.90
20777;DHT22;10548;47.504;8.248;2022-10-16T04:12:29;13.00;99.90
20777;DHT22;10548;47.504;8.248;2022-10-16T04:14:56;13.00;99.90
20777;DHT22;10548;47.504;8.248;2022-10-16T04:17:23;13.10;99.90
20777;DHT22;10548;47.504;8.248;2022-10-16T04:19:51;13.10;99.90
20777;DHT22;10548;47.504;8.248;2022-10-16T04:22:18;13.00;99.90
20777;DHT22;10548;47.504;8.248;2022-10-16T04:24:45;13.00;99.90
20777;DHT22;10548;47.504;8.248;2022-10-16T04:27:12;13.00;99.90
20777;DHT22;10548;47.504;8.248;2022-10-16T04:29:39;13.00;99.90
20777;DHT22;10548;47.504;8.248;2022-10-16T04:32:09;13.00;99.90
20777;DHT22;10548;47.504;8.248;2022-10-16T04:34:36;13.00;99.90
20777;DHT22;10548;47.504;8.248;2022-10-16T04:37:05;13.00;99.90
20777;DHT22;10548;47.504;8.248;2022-10-16T04:39:32;12.90;99.90
20777;DHT22;10548;47.504;8.248;2022-10-16T04:41:59;12.90;99.90
20777;DHT22;10548;47.504;8.248;2022-10-16T04:44:26;12.90;99.90
20777;DHT22;10548;47.504;8.248;2022-10-16T04:46:53;12.90;99.90
20777;DHT22;10548;47.504;8.248;2022-10-16T04:49:21;12.80;99.90
20777;DHT22;10548;47.504;8.248;2022-10-16T04:51:48;12.80;99.90
20777;DHT22;10548;47.504;8.248;2022-10-16T04:54:15;12.80;99.90
20777;DHT22;10548;47.504;8.248;2022-10-16T04:56:42;12.80;99.90
20777;DHT22;10548;47.504;8.248;2022-10-16T04:59:14;12.80;99.90
20777;DHT22;10548;47.504;8.248;2022-10-16T05:01:42;12.80;99.90
20777;DHT22;10548;47.504;8.248;2022-10-16T05:04:09;12.80;99.90
20777;DHT22;10548;47.504;8.248;2022-10-16T05:06:37;12.90;99.90
20777;DHT22;10548;47.504;8.248;2022-10-16T05:09:05;12.90;99.90
20777;DHT22;10548;47.504;8.248;2022-10-16T05:11:32;12.90;99.90
20777;DHT22;10548;47.504;8.248;2022-10-16T05:14:00;12.90;99.90
20777;DHT22;10548;47.504;8.248;2022-10-16T05:16:27;12.90;99.90
20777;DHT22;10548;47.504;8.248;2022-10-16T05:18:54;12.90;99.90
20777;DHT22;10548;47.504;8.248;2022-10-16T05:21:41;12.90;99.90
20777;DHT22;10548;47.504;8.248;2022-10-16T05:24:09;12.90;99.90
20777;DHT22;10548;47.504;8.248;2022-10-16T05:26:36;12.90;99.90
20777;DHT22;10548;47.504;8.248;2022-10-16T05:29:03;12.90;99.90
20777;DHT22;10548;47.504;8.248;2022-10-16T05:31:31;12.90;99.90
20777;DHT22;10548;47.504;8.248;2022-10-16T05:33:59;12.90;99.90
20777;DHT22;10548;47.504;8.248;2022-10-16T05:36:26;12.90;99.90
20777;DHT22;10548;47.504;8.248;2022-10-16T05:38:54;12.90;99.90
20777;DHT22;10548;47.504;8.248;2022-10-16T05:41:21;12.90;99.90
20777;DHT22;10548;47.504;8.248;2022-10-16T05:43:50;12.90;99.90
20777;DHT22;10548;47.504;8.248;2022-10-16T05:46:17;12.90;99.90
20777;DHT22;10548;47.504;8.248;2022-10-16T05:48:45;12.80;99.90
20777;DHT22;10548;47.504;8.248;2022-10-16T05:51:13;12.80;99.90
20777;DHT22;10548;47.504;8.248;2022-10-16T05:53:41;12.80;99.90
20777;DHT22;10548;47.504;8.248;2022-10-16T05:56:13;12.80;99.90
20777;DHT22;10548;47.504;8.248;2022-10-16T05:58:41;12.80;99.90
20777;DHT22;10548;47.504;8.248;2022-10-16T06:01:14;12.70;99.90
20777;DHT22;10548;47.504;8.248;2022-10-16T06:03:41;12.80;99.90
20777;DHT22;10548;47.504;8.248;2022-10-16T06:06:16;12.80;99.90
20777;DHT22;10548;47.504;8.248;2022-10-16T06:08:45;12.80;99.90
20777;DHT22;10548;47.504;8.248;2022-10-16T06:11:16;12.80;99.90
20777;DHT22;10548;47.504;8.248;2022-10-16T06:13:43;12.90;99.90
20777;DHT22;10548;47.504;8.248;2022-10-16T06:16:13;12.90;99.90
20777;DHT22;10548;47.504;8.248;2022-10-16T06:18:40;12.90;99.90
20777;DHT22;10548;47.504;8.248;2022-10-16T06:21:13;13.00;99.90
20777;DHT22;10548;47.504;8.248;2022-10-16T06:23:41;13.00;99.90
20777;DHT22;10548;47.504;8.248;2022-10-16T06:26:10;13.10;99.90
20777;DHT22;10548;47.504;8.248;2022-10-16T06:28:38;13.20;99.90
20777;DHT22;10548;47.504;8.248;2022-10-16T06:31:07;13.30;99.90
20777;DHT22;10548;47.504;8.248;2022-10-16T06:33:35;13.30;99.90
20777;DHT22;10548;47.504;8.248;2022-10-16T06:36:07;13.30;99.90
20777;DHT22;10548;47.504;8.248;2022-10-16T06:38:35;13.30;99.90
20777;DHT22;10548;47.504;8.248;2022-10-16T06:41:03;13.30;99.90
20777;DHT22;10548;47.504;8.248;2022-10-16T06:43:30;13.30;99.90
20777;DHT22;10548;47.504;8.248;2022-10-16T06:45:59;13.30;99.90
20777;DHT22;10548;47.504;8.248;2022-10-16T06:48:28;13.30;99.90
20777;DHT22;10548;47.504;8.248;2022-10-16T06:51:09;13.40;99.90
20777;DHT22;10548;47.504;8.248;2022-10-16T06:53:39;13.40;99.90
20777;DHT22;10548;47.504;8.248;2022-10-16T06:56:27;13.30;99.90
20777;DHT22;10548;47.504;8.248;2022-10-16T06:58:56;13.20;99.90
20777;DHT22;10548;47.504;8.248;2022-10-16T07:01:24;13.20;99.90
20777;DHT22;10548;47.504;8.248;2022-10-16T07:03:52;13.20;99.90
20777;DHT22;10548;47.504;8.248;2022-10-16T07:06:21;13.30;99.90
20777;DHT22;10548;47.504;8.248;2022-10-16T07:08:49;13.40;99.90
20777;DHT22;10548;47.504;8.248;2022-10-16T07:11:18;13.30;99.90
20777;DHT22;10548;47.504;8.248;2022-10-16T07:13:47;13.30;99.90
20777;DHT22;10548;47.504;8.248;2022-10-16T07:16:23;13.30;99.90
20777;DHT22;10548;47.504;8.248;2022-10-16T07:18:51;13.50;99.90
20777;DHT22;10548;47.504;8.248;2022-10-16T07:21:26;13.60;99.90
20777;DHT22;10548;47.504;8.248;2022-10-16T07:23:56;13.60;99.90
20777;DHT22;10548;47.504;8.248;2022-10-16T07:26:25;13.80;99.90
20777;DHT22;10548;47.504;8.248;2022-10-16T07:28:53;13.90;99.90
20777;DHT22;10548;47.504;8.248;2022-10-16T07:31:21;14.00;99.90
20777;DHT22;10548;47.504;8.248;2022-10-16T07:33:48;14.20;99.90
20777;DHT22;10548;47.504;8.248;2022-10-16T07:36:17;14.10;99.90
20777;DHT22;10548;47.504;8.248;2022-10-16T07:38:45;14.10;99.90
20777;DHT22;10548;47.504;8.248;2022-10-16T07:41:17;14.10;99.90
20777;DHT22;10548;47.504;8.248;2022-10-16T07:43:52;14.10;99.90
20777;DHT22;10548;47.504;8.248;2022-10-16T07:46:22;14.10;99.90
20777;DHT22;10548;47.504;8.248;2022-10-16T07:48:50;14.10;99.90
20777;DHT22;10548;47.504;8.248;2022-10-16T07:51:25;14.20;99.90
20777;DHT22;10548;47.504;8.248;2022-10-16T07:53:52;14.40;99.90
20777;DHT22;10548;47.504;8.248;2022-10-16T07:56:20;14.50;99.90
20777;DHT22;10548;47.504;8.248;2022-10-16T07:58:48;14.60;99.90
20777;DHT22;10548;47.504;8.248;2022-10-16T08:01:17;14.60;99.90
20777;DHT22;10548;47.504;8.248;2022-10-16T08:03:49;15.00;99.90
20777;DHT22;10548;47.504;8.248;2022-10-16T08:06:18;15.10;99.90
20777;DHT22;10548;47.504;8.248;2022-10-16T08:08:52;14.90;99.90
20777;DHT22;10548;47.504;8.248;2022-10-16T08:11:19;15.10;99.90
20777;DHT22;10548;47.504;8.248;2022-10-16T08:13:47;15.20;99.90
20777;DHT22;10548;47.504;8.248;2022-10-16T08:16:14;15.20;99.90
20777;DHT22;10548;47.504;8.248;2022-10-16T08:18:41;15.30;99.90
20777;DHT22;10548;47.504;8.248;2022-10-16T08:21:15;16.00;99.90
20777;DHT22;10548;47.504;8.248;2022-10-16T08:23:47;16.40;99.90
20777;DHT22;10548;47.504;8.248;2022-10-16T08:26:22;16.30;99.90
20777;DHT22;10548;47.504;8.248;2022-10-16T08:28:50;16.10;99.90
20777;DHT22;10548;47.504;8.248;2022-10-16T08:31:19;16.10;99.90
20777;DHT22;10548;47.504;8.248;2022-10-16T08:33:47;16.20;99.90
20777;DHT22;10548;47.504;8.248;2022-10-16T08:36:15;16.10;99.90
20777;DHT22;10548;47.504;8.248;2022-10-16T08:38:43;16.40;99.90
20777;DHT22;10548;47.504;8.248;2022-10-16T08:47:53;16.80;99.90
20777;DHT22;10548;47.504;8.248;2022-10-16T08:50:30;17.00;99.90
20777;DHT22;10548;47.504;8.248;2022-10-16T08:52:59;16.90;99.90
20777;DHT22;10548;47.504;8.248;2022-10-16T08:55:45;16.80;99.90
20777;DHT22;10548;47.504;8.248;2022-10-16T08:58:15;16.70;99.90
20777;DHT22;10548;47.504;8.248;2022-10-16T09:00:46;16.90;99.90
20777;DHT22;10548;47.504;8.248;2022-10-16T09:04:09;17.20;99.90
20777;DHT22;10548;47.504;8.248;2022-10-16T09:07:01;17.40;99.90
20777;DHT22;10548;47.504;8.248;2022-10-16T09:12:44;17.90;99.90
20777;DHT22;10548;47.504;8.248;2022-10-16T09:15:42;18.50;99.90
20777;DHT22;10548;47.504;8.248;2022-10-16T09:18:45;19.00;99.90
20777;DHT22;10548;47.504;8.248;2022-10-16T09:21:20;19.20;99.90
20777;DHT22;10548;47.504;8.248;2022-10-16T09:23:48;19.40;99.90
20777;DHT22;10548;47.504;8.248;2022-10-16T09:26:16;20.00;99.90
20777;DHT22;10548;47.504;8.248;2022-10-16T09:28:45;19.90;99.90
20777;DHT22;10548;47.504;8.248;2022-10-16T09:31:18;20.70;99.90
20777;DHT22;10548;47.504;8.248;2022-10-16T09:33:50;20.60;97.70
20777;DHT22;10548;47.504;8.248;2022-10-16T09:36:20;20.70;97.50
20777;DHT22;10548;47.504;8.248;2022-10-16T09:38:48;20.60;98.50
20777;DHT22;10548;47.504;8.248;2022-10-16T09:41:19;20.10;97.40
20777;DHT22;10548;47.504;8.248;2022-10-16T09:43:59;20.70;97.10
20777;DHT22;10548;47.504;8.248;2022-10-16T09:46:45;20.80;96.60
20777;DHT22;10548;47.504;8.248;2022-10-16T09:49:23;20.40;96.10
20777;DHT22;10548;47.504;8.248;2022-10-16T09:52:02;20.20;97.90
20777;DHT22;10548;47.504;8.248;2022-10-16T09:54:29;20.30;98.70
20777;DHT22;10548;47.504;8.248;2022-10-16T09:57:12;21.10;96.30
20777;DHT22;10548;47.504;8.248;2022-10-16T09:59:52;21.90;93.40
20777;DHT22;10548;47.504;8.248;2022-10-16T10:02:34;22.30;91.40
20777;DHT22;10548;47.504;8.248;2022-10-16T10:05:01;20.80;94.60
20777;DHT22;10548;47.504;8.248;2022-10-16T10:07:42;22.10;92.40
20777;DHT22;10548;47.504;8.248;2022-10-16T10:10:25;22.00;87.80
20777;DHT22;10548;47.504;8.248;2022-10-16T10:12:54;22.20;90.30
20777;DHT22;10548;47.504;8.248;2022-10-16T10:15:22;22.20;88.70
20777;DHT22;10548;47.504;8.248;2022-10-16T10:17:53;22.30;85.40
20777;DHT22;10548;47.504;8.248;2022-10-16T10:20:28;21.60;91.50
20777;DHT22;10548;47.504;8.248;2022-10-16T10:22:56;22.30;84.30
20777;DHT22;10548;47.504;8.248;2022-10-16T10:38:35;24.40;65.70
20777;DHT22;10548;47.504;8.248;2022-10-16T10:41:57;24.50;63.70
20777;DHT22;10548;47.504;8.248;2022-10-16T10:45:42;24.80;62.00
20777;DHT22;10548;47.504;8.248;2022-10-16T10:50:54;23.60;73.90
20777;DHT22;10548;47.504;8.248;2022-10-16T10:54:13;24.10;68.90
20777;DHT22;10548;47.504;8.248;2022-10-16T10:57:02;24.40;69.10
20777;DHT22;10548;47.504;8.248;2022-10-16T11:06:19;23.60;59.20
20777;DHT22;10548;47.504;8.248;2022-10-16T11:08:53;25.10;59.60
20777;DHT22;10548;47.504;8.248;2022-10-16T11:11:35;27.30;50.40
20777;DHT22;10548;47.504;8.248;2022-10-16T11:14:21;24.50;55.90
20777;DHT22;10548;47.504;8.248;2022-10-16T11:17:23;24.80;55.80
20777;DHT22;10548;47.504;8.248;2022-10-16T11:23:18;25.20;57.90
20777;DHT22;10548;47.504;8.248;2022-10-16T11:25:48;26.40;56.30
20777;DHT22;10548;47.504;8.248;2022-10-16T11:28:37;23.80;58.10
20777;DHT22;10548;47.504;8.248;2022-10-16T11:31:42;25.90;54.80
20777;DHT22;10548;47.504;8.248;2022-10-16T11:37:21;26.00;53.90
20777;DHT22;10548;47.504;8.248;2022-10-16T11:39:52;28.10;48.80
20777;DHT22;10548;47.504;8.248;2022-10-16T11:42:25;30.30;41.40
20777;DHT22;10548;47.504;8.248;2022-10-16T11:45:00;30.40;38.70
20777;DHT22;10548;47.504;8.248;2022-10-16T11:47:40;31.70;34.10
20777;DHT22;10548;47.504;8.248;2022-10-16T11:50:48;32.30;32.80
20777;DHT22;10548;47.504;8.248;2022-10-16T11:56:30;33.20;26.30
20777;DHT22;10548;47.504;8.248;2022-10-16T11:59:07;32.10;27.80
20777;DHT22;10548;47.504;8.248;2022-10-16T12:01:51;32.50;28.10
20777;DHT22;10548;47.504;8.248;2022-10-16T12:05:07;32.60;28.60
20777;DHT22;10548;47.504;8.248;2022-10-16T12:07:33;31.60;29.60
20777;DHT22;10548;47.504;8.248;2022-10-16T12:10:24;31.70;31.70
20777;DHT22;10548;47.504;8.248;2022-10-16T12:12:53;32.40;26.30
20777;DHT22;10548;47.504;8.248;2022-10-16T12:15:32;31.20;31.90
20777;DHT22;10548;47.504;8.248;2022-10-16T12:18:25;31.60;28.90
20777;DHT22;10548;47.504;8.248;2022-10-16T12:20:59;30.20;31.90
20777;DHT22;10548;47.504;8.248;2022-10-16T12:23:32;28.50;34.60
20777;DHT22;10548;47.504;8.248;2022-10-16T12:26:00;29.40;34.00
20777;DHT22;10548;47.504;8.248;2022-10-16T12:28:32;27.30;35.60
20777;DHT22;10548;47.504;8.248;2022-10-16T12:31:05;26.90;39.80
20777;DHT22;10548;47.504;8.248;2022-10-16T12:33:35;26.60;39.20
20777;DHT22;10548;47.504;8.248;2022-10-16T12:36:27;27.30;38.30
20777;DHT22;10548;47.504;8.248;2022-10-16T12:38:55;28.30;36.30
20777;DHT22;10548;47.504;8.248;2022-10-16T12:41:34;29.40;31.60
20777;DHT22;10548;47.504;8.248;2022-10-16T12:44:02;29.70;29.30
20777;DHT22;10548;47.504;8.248;2022-10-16T12:46:39;28.40;32.60
20777;DHT22;10548;47.504;8.248;2022-10-16T12:49:35;28.60;33.70
20777;DHT22;10548;47.504;8.248;2022-10-16T12:52:04;28.70;33.30
20777;DHT22;10548;47.504;8.248;2022-10-16T12:54:37;28.30;34.30
20777;DHT22;10548;47.504;8.248;2022-10-16T13:00:44;30.00;33.00
20777;DHT22;10548;47.504;8.248;2022-10-16T13:04:29;29.80;30.00
20777;DHT22;10548;47.504;8.248;2022-10-16T13:06:39;29.30;31.00
20777;DHT22;10548;47.504;8.248;2022-10-16T13:09:40;27.40;34.90
20777;DHT22;10548;47.504;8.248;2022-10-16T13:15:39;27.90;37.20
20777;DHT22;10548;47.504;8.248;2022-10-16T13:18:38;28.70;32.00
20777;DHT22;10548;47.504;8.248;2022-10-16T13:21:24;28.60;34.40
20777;DHT22;10548;47.504;8.248;2022-10-16T13:27:29;30.40;31.20
20777;DHT22;10548;47.504;8.248;2022-10-16T13:30:11;30.70;29.10
20777;DHT22;10548;47.504;8.248;2022-10-16T13:32:39;30.80;27.50
20777;DHT22;10548;47.504;8.248;2022-10-16T13:35:22;30.20;31.20
20777;DHT22;10548;47.504;8.248;2022-10-16T13:37:50;31.30;28.20
20777;DHT22;10548;47.504;8.248;2022-10-16T13:40:23;32.00;26.80
20777;DHT22;10548;47.504;8.248;2022-10-16T13:42:52;30.20;28.30
20777;DHT22;10548;47.504;8.248;2022-10-16T13:45:22;31.90;27.50
20777;DHT22;10548;47.504;8.248;2022-10-16T13:47:49;31.30;27.90
20777;DHT22;10548;47.504;8.248;2022-10-16T13:50:18;31.30;27.40
20777;DHT22;10548;47.504;8.248;2022-10-16T13:52:45;30.60;29.70
20777;DHT22;10548;47.504;8.248;2022-10-16T13:55:17;32.60;25.30
20777;DHT22;10548;47.504;8.248;2022-10-16T13:57:45;29.50;29.80
20777;DHT22;10548;47.504;8.248;2022-10-16T14:00:24;29.90;31.10
20777;DHT22;10548;47.504;8.248;2022-10-16T14:03:13;29.90;31.30
20777;DHT22;10548;47.504;8.248;2022-10-16T14:05:50;31.00;29.30
20777;DHT22;10548;47.504;8.248;2022-10-16T14:08:18;32.20;26.20
20777;DHT22;10548;47.504;8.248;2022-10-16T14:10:54;31.10;26.20
20777;DHT22;10548;47.504;8.248;2022-10-16T14:13:51;30.70;28.10
20777;DHT22;10548;47.504;8.248;2022-10-16T14:16:21;31.70;26.00
20777;DHT22;10548;47.504;8.248;2022-10-16T14:19:01;31.50;27.30
20777;DHT22;10548;47.504;8.248;2022-10-16T14:21:29;30.70;28.70
20777;DHT22;10548;47.504;8.248;2022-10-16T14:23:57;31.30;26.50
20777;DHT22;10548;47.504;8.248;2022-10-16T14:26:26;29.70;28.90
20777;DHT22;10548;47.504;8.248;2022-10-16T14:29:15;30.60;30.50
20777;DHT22;10548;47.504;8.248;2022-10-16T14:31:55;30.70;29.90
20777;DHT22;10548;47.504;8.248;2022-10-16T14:34:31;32.10;26.40
20777;DHT22;10548;47.504;8.248;2022-10-16T14:37:22;33.10;26.80
20777;DHT22;10548;47.504;8.248;2022-10-16T14:39:54;32.30;26.00
20777;DHT22;10548;47.504;8.248;2022-10-16T14:42:23;32.30;24.30
20777;DHT22;10548;47.504;8.248;2022-10-16T14:44:53;30.10;28.30
20777;DHT22;10548;47.504;8.248;2022-10-16T14:47:23;30.60;26.70
20777;DHT22;10548;47.504;8.248;2022-10-16T14:49:54;33.00;24.70
20777;DHT22;10548;47.504;8.248;2022-10-16T14:52:26;34.00;21.50
20777;DHT22;10548;47.504;8.248;2022-10-16T14:54:53;35.30;20.50
20777;DHT22;10548;47.504;8.248;2022-10-16T14:57:24;36.10;19.90
20777;DHT22;10548;47.504;8.248;2022-10-16T14:59:52;35.00;19.80
20777;DHT22;10548;47.504;8.248;2022-10-16T15:02:33;32.50;21.70
20777;DHT22;10548;47.504;8.248;2022-10-16T15:05:24;32.80;21.70
20777;DHT22;10548;47.504;8.248;2022-10-16T15:07:54;32.10;23.20
20777;DHT22;10548;47.504;8.248;2022-10-16T15:10:23;32.10;23.90
20777;DHT22;10548;47.504;8.248;2022-10-16T15:12:51;31.00;25.20
20777;DHT22;10548;47.504;8.248;2022-10-16T15:15:43;27.70;29.00
20777;DHT22;10548;47.504;8.248;2022-10-16T15:18:11;26.80;31.70
20777;DHT22;10548;47.504;8.248;2022-10-16T15:20:58;25.60;34.20
20777;DHT22;10548;47.504;8.248;2022-10-16T15:23:25;25.90;37.10
20777;DHT22;10548;47.504;8.248;2022-10-16T15:25:57;27.50;35.20
20777;DHT22;10548;47.504;8.248;2022-10-16T15:28:25;28.70;31.10
20777;DHT22;10548;47.504;8.248;2022-10-16T15:30:54;29.80;28.60
20777;DHT22;10548;47.504;8.248;2022-10-16T15:33:23;30.70;26.60
20777;DHT22;10548;47.504;8.248;2022-10-16T15:35:51;30.50;26.90
20777;DHT22;10548;47.504;8.248;2022-10-16T15:38:21;31.20;27.20
20777;DHT22;10548;47.504;8.248;2022-10-16T15:40:49;30.00;27.50
20777;DHT22;10548;47.504;8.248;2022-10-16T15:43:16;32.00;24.80
20777;DHT22;10548;47.504;8.248;2022-10-16T15:45:43;32.30;24.40
20777;DHT22;10548;47.504;8.248;2022-10-16T15:48:11;31.40;25.20
20777;DHT22;10548;47.504;8.248;2022-10-16T15:50:40;31.30;26.40
20777;DHT22;10548;47.504;8.248;2022-10-16T15:53:07;30.60;27.70
20777;DHT22;10548;47.504;8.248;2022-10-16T15:55:34;30.00;29.50
20777;DHT22;10548;47.504;8.248;2022-10-16T15:58:04;28.20;33.20
20777;DHT22;10548;47.504;8.248;2022-10-16T16:00:32;26.00;40.60
20777;DHT22;10548;47.504;8.248;2022-10-16T16:02:59;24.80;44.80
20777;DHT22;10548;47.504;8.248;2022-10-16T16:05:27;23.80;48.90
20777;DHT22;10548;47.504;8.248;2022-10-16T16:07:56;23.40;52.70
20777;DHT22;10548;47.504;8.248;2022-10-16T16:10:23;22.80;56.50
20777;DHT22;10548;47.504;8.248;2022-10-16T16:12:50;22.20;59.40
20777;DHT22;10548;47.504;8.248;2022-10-16T16:15:21;21.80;63.70
20777;DHT22;10548;47.504;8.248;2022-10-16T16:17:48;21.60;61.80
20777;DHT22;10548;47.504;8.248;2022-10-16T16:20:16;21.60;61.70
20777;DHT22;10548;47.504;8.248;2022-10-16T16:22:44;21.60;62.80
20777;DHT22;10548;47.504;8.248;2022-10-16T16:25:11;21.20;65.00
20777;DHT22;10548;47.504;8.248;2022-10-16T16:27:38;21.10;64.20
20777;DHT22;10548;47.504;8.248;2022-10-16T16:30:07;21.10;64.80
20777;DHT22;10548;47.504;8.248;2022-10-16T16:32:35;20.90;66.10
20777;DHT22;10548;47.504;8.248;2022-10-16T16:35:03;20.70;67.60
20777;DHT22;10548;47.504;8.248;2022-10-16T16:37:31;20.40;69.40
20777;DHT22;10548;47.504;8.248;2022-10-16T16:39:58;20.20;74.20
20777;DHT22;10548;47.504;8.248;2022-10-16T16:42:26;19.90;77.70
20777;DHT22;10548;47.504;8.248;2022-10-16T16:44:53;19.70;80.50
20777;DHT22;10548;47.504;8.248;2022-10-16T16:47:20;19.80;77.90
20777;DHT22;10548;47.504;8.248;2022-10-16T16:49:47;19.90;75.30
20777;DHT22;10548;47.504;8.248;2022-10-16T16:52:15;20.20;72.10
20777;DHT22;10548;47.504;8.248;2022-10-16T16:54:42;20.10;74.10
20777;DHT22;10548;47.504;8.248;2022-10-16T16:57:11;20.00;74.10
20777;DHT22;10548;47.504;8.248;2022-10-16T16:59:38;20.10;73.70
20777;DHT22;10548;47.504;8.248;2022-10-16T17:02:05;20.00;73.60